Loading...

Airport Munich Airport(EDDM)



ICAO EDDM
Land Germany
Position 48° 21.228 N 11° 47.166 E
Höhe 1487 ft über NN

Pisten Länge(ft) Länge(m) HDG
08R 13123ft 43043m 83
26L 13123ft 43043m 263
08L 13123ft 43043m 83
26R 13123ft 43043m 263

METAR

2022/05/21 05:20 EDDM 210520Z 27009KT 240V300 9999 FEW021 16/13 Q1022 NOSIG

TAF(Forecast)

2022/05/21 06:27 TAF EDDM 210500Z 2106/2212 28010KT 9999 SCT030 BECMG 2117/2119 VRB02KT